Time;durP1;ratioP1;P1;durP2;ratioP2;P2;SDS_P1;SDS_P2;PMS_P1;PMS_P2;Temp;Humidity;BMP_temperature;BMP_pressure;BME280_temperature;BME280_humidity;BME280_pressure;Samples;Min_cycle;Max_cycle;Signal;HPM_P1;HPM_P2
2023/11/11 00:00:31;;;;;;;5.80;1.50;;;6.30;99.90;;;;;;5033298;28;20030;-51
2023/11/11 00:02:57;;;;;;;6.33;2.17;;;6.30;99.90;;;;;;5033563;28;20029;-52
2023/11/11 00:05:24;;;;;;;7.67;1.93;;;6.30;99.90;;;;;;5033474;28;20382;-51
2023/11/11 00:07:50;;;;;;;5.67;1.97;;;6.30;99.90;;;;;;5032369;28;20092;-53
2023/11/11 00:10:16;;;;;;;4.57;1.80;;;6.40;99.90;;;;;;5032899;28;20098;-51
2023/11/11 00:12:43;;;;;;;3.33;1.50;;;6.40;99.90;;;;;;5032957;28;20082;-51
2023/11/11 00:15:09;;;;;;;3.67;1.43;;;6.50;99.90;;;;;;5032805;28;20056;-52
2023/11/11 00:17:36;;;;;;;3.53;1.37;;;6.40;99.90;;;;;;5032481;28;20055;-55
2023/11/11 00:20:03;;;;;;;2.80;1.00;;;6.40;99.90;;;;;;5032441;28;20029;-52
2023/11/11 00:22:29;;;;;;;4.20;1.50;;;6.40;99.90;;;;;;5032678;28;20034;-51
2023/11/11 00:24:55;;;;;;;1.97;1.00;;;6.50;99.90;;;;;;5032765;28;20033;-51
2023/11/11 00:27:21;;;;;;;2.23;1.20;;;6.40;99.90;;;;;;5015012;28;20445;-52
2023/11/11 00:29:47;;;;;;;2.80;1.30;;;6.40;99.90;;;;;;5032426;28;20034;-54
2023/11/11 00:32:13;;;;;;;3.57;1.40;;;6.40;99.90;;;;;;5014850;28;20045;-55
2023/11/11 00:34:40;;;;;;;2.60;1.10;;;6.50;99.90;;;;;;5014738;28;20700;-52
2023/11/11 00:37:06;;;;;;;6.03;1.57;;;6.50;99.90;;;;;;5014504;28;20039;-54
2023/11/11 00:39:33;;;;;;;3.43;1.10;;;6.50;99.90;;;;;;5032484;28;20080;-56
2023/11/11 00:42:02;;;;;;;3.87;1.60;;;6.50;99.90;;;;;;5038347;28;20029;-54
2023/11/11 00:44:28;;;;;;;4.38;1.83;;;6.40;99.90;;;;;;5038969;28;20152;-54
2023/11/11 00:46:54;;;;;;;4.87;2.13;;;6.50;99.90;;;;;;5021147;28;20053;-52
2023/11/11 00:49:19;;;;;;;4.10;1.80;;;6.50;99.90;;;;;;5021232;28;20029;-55
2023/11/11 00:51:45;;;;;;;5.37;2.20;;;6.50;99.90;;;;;;5021084;28;20057;-55
2023/11/11 00:54:11;;;;;;;5.43;2.57;;;6.50;99.90;;;;;;5021444;28;20116;-55
2023/11/11 00:56:37;;;;;;;8.93;3.47;;;6.50;99.90;;;;;;5021265;28;20025;-56
2023/11/11 00:59:06;;;;;;;10.40;3.47;;;6.60;99.90;;;;;;5038657;28;20025;-55
2023/11/11 01:01:34;;;;;;;10.03;4.40;;;6.60;99.90;;;;;;5039297;28;20045;-56
2023/11/11 01:04:01;;;;;;;10.05;4.18;;;6.70;99.90;;;;;;5004848;28;20083;-55
2023/11/11 01:06:27;;;;;;;12.53;4.43;;;6.70;99.90;;;;;;5038650;28;20037;-53
2023/11/11 01:08:53;;;;;;;16.10;5.60;;;6.70;99.90;;;;;;5020520;28;20033;-55
2023/11/11 01:11:20;;;;;;;12.23;6.00;;;6.70;99.90;;;;;;5038876;28;20029;-54
2023/11/11 01:13:46;;;;;;;14.50;6.10;;;6.80;99.90;;;;;;5020737;28;20037;-55
2023/11/11 01:16:12;;;;;;;13.83;5.03;;;6.80;99.90;;;;;;5039163;28;20557;-54
2023/11/11 01:18:38;;;;;;;13.73;6.67;;;6.90;99.90;;;;;;5020555;28;20124;-50
2023/11/11 01:21:04;;;;;;;19.23;7.17;;;6.90;99.90;;;;;;5021133;28;20025;-55
2023/11/11 01:23:30;;;;;;;16.33;7.00;;;6.90;99.90;;;;;;5039041;28;20076;-51
2023/11/11 01:25:57;;;;;;;20.67;7.80;;;6.90;99.90;;;;;;5021126;28;20021;-56
2023/11/11 01:28:23;;;;;;;14.80;7.07;;;6.90;99.90;;;;;;5020843;28;20367;-52
2023/11/11 01:30:49;;;;;;;19.27;7.57;;;6.90;99.90;;;;;;5021167;28;20224;-55
2023/11/11 01:33:15;;;;;;;22.37;8.30;;;6.90;99.90;;;;;;5020808;28;20029;-55
2023/11/11 01:35:41;;;;;;;20.33;8.17;;;6.90;99.90;;;;;;5020870;28;20135;-52
2023/11/11 01:38:06;;;;;;;22.97;9.53;;;6.90;99.90;;;;;;5020743;28;20032;-51
2023/11/11 01:40:32;;;;;;;22.33;8.40;;;7.00;99.90;;;;;;5020531;28;20036;-51
2023/11/11 01:43:00;;;;;;;17.80;8.97;;;7.00;99.90;;;;;;5038621;28;20069;-53
2023/11/11 01:45:27;;;;;;;18.63;8.67;;;7.10;99.90;;;;;;5038574;28;20500;-54
2023/11/11 01:47:53;;;;;;;17.60;8.20;;;7.10;99.90;;;;;;5020160;28;20445;-50
2023/11/11 01:50:20;;;;;;;19.27;8.40;;;7.10;99.90;;;;;;5020300;28;20359;-52
2023/11/11 01:52:46;;;;;;;21.30;8.97;;;7.20;99.90;;;;;;5018806;28;20474;-56
2023/11/11 01:55:12;;;;;;;21.23;8.63;;;7.10;99.90;;;;;;5035542;28;20033;-54
2023/11/11 01:57:39;;;;;;;19.83;8.63;;;7.10;99.90;;;;;;5035132;28;20053;-52
2023/11/11 02:00:12;;;;;;;19.80;9.07;;;7.00;99.90;;;;;;5017318;28;20032;-51
2023/11/11 02:02:39;;;;;;;17.27;7.97;;;6.90;99.90;;;;;;5035212;28;20026;-52
2023/11/11 02:05:06;;;;;;;23.33;8.87;;;6.90;99.90;;;;;;5035238;28;20034;-52
2023/11/11 02:07:33;;;;;;;20.00;8.83;;;6.90;99.90;;;;;;5035263;28;20040;-54
2023/11/11 02:09:58;;;;;;;16.67;8.13;;;6.90;99.90;;;;;;5017118;28;20025;-54
2023/11/11 02:12:26;;;;;;;18.97;8.87;;;6.80;99.90;;;;;;5017313;28;20471;-51
2023/11/11 02:14:52;;;;;;;18.20;7.60;;;6.80;99.90;;;;;;5016881;28;20041;-51
2023/11/11 02:17:18;;;;;;;20.30;8.57;;;6.70;99.90;;;;;;5034969;28;20025;-55
2023/11/11 02:19:43;;;;;;;19.40;8.80;;;6.70;99.90;;;;;;5016793;28;20053;-51
2023/11/11 02:22:09;;;;;;;16.57;7.80;;;6.60;99.90;;;;;;5017218;28;20068;-50
2023/11/11 02:24:37;;;;;;;19.87;9.37;;;6.70;99.90;;;;;;5034936;28;20053;-51
2023/11/11 02:27:04;;;;;;;17.60;8.10;;;6.60;99.90;;;;;;5016850;28;20398;-52
2023/11/11 02:29:30;;;;;;;17.93;8.27;;;6.60;99.90;;;;;;5016624;28;20040;-52
2023/11/11 02:31:56;;;;;;;21.00;8.63;;;6.50;99.90;;;;;;5034647;28;20033;-55
2023/11/11 02:34:25;;;;;;;17.83;7.40;;;6.50;99.90;;;;;;5019475;23;20098;-54
2023/11/11 02:36:52;;;;;;;17.47;9.17;;;6.50;99.90;;;;;;4972312;28;20121;-53
2023/11/11 02:39:17;;;;;;;18.47;8.10;;;6.50;99.90;;;;;;4983077;28;20393;-53
2023/11/11 02:41:43;;;;;;;18.43;7.93;;;6.40;99.90;;;;;;4992292;28;20117;-50
2023/11/11 02:44:08;;;;;;;20.23;8.53;;;6.50;99.90;;;;;;4993449;28;20030;-53
2023/11/11 02:46:34;;;;;;;16.40;7.53;;;6.50;99.90;;;;;;4992167;28;20064;-54
2023/11/11 02:49:00;;;;;;;16.30;8.00;;;6.40;99.90;;;;;;4991470;28;20127;-50
2023/11/11 02:51:25;;;;;;;15.83;7.70;;;6.40;99.90;;;;;;4991694;28;20491;-54
2023/11/11 02:53:51;;;;;;;19.37;7.47;;;6.50;99.90;;;;;;4991795;28;20026;-54
2023/11/11 02:56:16;;;;;;;17.43;6.80;;;6.50;99.90;;;;;;4993192;28;20653;-53
2023/11/11 02:58:42;;;;;;;15.90;7.33;;;6.50;99.90;;;;;;4991210;28;20117;-52
2023/11/11 03:01:08;;;;;;;17.67;7.03;;;6.50;99.90;;;;;;4992942;28;20030;-52
2023/11/11 03:03:34;;;;;;;14.93;6.20;;;6.40;99.90;;;;;;4991012;28;20466;-55
2023/11/11 03:06:03;;;;;;;16.83;7.23;;;6.50;99.90;;;;;;4991378;28;20069;-54
2023/11/11 03:08:28;;;;;;;14.15;7.30;;;6.50;99.90;;;;;;4991035;28;20042;-52
2023/11/11 03:10:54;;;;;;;14.50;7.27;;;6.50;99.90;;;;;;4991451;28;20088;-53
2023/11/11 03:13:19;;;;;;;15.17;7.40;;;6.50;99.90;;;;;;4992571;28;20479;-51
2023/11/11 03:15:45;;;;;;;14.90;6.20;;;6.40;99.90;;;;;;4992714;28;20029;-48
2023/11/11 03:18:11;;;;;;;14.17;6.20;;;6.40;99.90;;;;;;4990997;28;20030;-50
2023/11/11 03:20:37;;;;;;;13.17;6.77;;;6.50;99.90;;;;;;4990856;28;20065;-51
2023/11/11 03:23:03;;;;;;;16.43;6.77;;;6.50;99.90;;;;;;4992640;28;20112;-50
2023/11/11 03:25:29;;;;;;;15.30;6.77;;;6.50;99.90;;;;;;4992404;28;20154;-50
2023/11/11 03:27:55;;;;;;;14.97;6.63;;;6.60;99.90;;;;;;4990926;28;20507;-51
2023/11/11 03:30:21;;;;;;;15.03;7.10;;;6.60;99.90;;;;;;4992167;28;20113;-52
2023/11/11 03:32:47;;;;;;;15.27;6.33;;;6.60;99.90;;;;;;4992095;28;20037;-51
2023/11/11 03:35:12;;;;;;;15.73;6.77;;;6.60;99.90;;;;;;4990797;28;20213;-49
2023/11/11 03:37:38;;;;;;;13.07;7.17;;;6.50;99.90;;;;;;4990716;28;20476;-51
2023/11/11 03:40:04;;;;;;;14.93;6.73;;;6.50;99.90;;;;;;4990604;28;20030;-51
2023/11/11 03:42:30;;;;;;;13.63;6.40;;;6.60;99.90;;;;;;4990849;28;20042;-50
2023/11/11 03:44:56;;;;;;;20.47;7.43;;;6.60;99.90;;;;;;4990792;28;20084;-52
2023/11/11 03:47:21;;;;;;;14.00;6.40;;;6.60;99.90;;;;;;4991792;28;20465;-52
2023/11/11 03:49:47;;;;;;;14.40;6.27;;;6.60;99.90;;;;;;4991505;28;20034;-53
2023/11/11 03:52:12;;;;;;;15.50;6.20;;;6.60;99.90;;;;;;4991776;28;20045;-55
2023/11/11 03:54:38;;;;;;;15.03;5.87;;;6.60;99.90;;;;;;4992198;28;20033;-54
2023/11/11 03:57:04;;;;;;;14.83;6.57;;;6.60;99.90;;;;;;4990358;28;20491;-53
2023/11/11 03:59:34;;;;;;;15.33;5.73;;;6.60;99.90;;;;;;4991589;28;20541;-55
2023/11/11 04:02:00;;;;;;;11.50;5.30;;;6.60;99.90;;;;;;4990516;28;20372;-50
2023/11/11 04:04:25;;;;;;;13.27;6.13;;;6.70;99.90;;;;;;4991581;28;20038;-50
2023/11/11 04:06:52;;;;;;;14.57;5.57;;;6.80;99.90;;;;;;4990219;28;20037;-53
2023/11/11 04:09:18;;;;;;;12.63;5.47;;;6.80;99.90;;;;;;4990117;28;20084;-54
2023/11/11 04:11:43;;;;;;;14.50;5.83;;;6.80;99.90;;;;;;4991488;28;20057;-52
2023/11/11 04:14:09;;;;;;;13.17;4.70;;;6.70;99.90;;;;;;4974163;28;20030;-51
2023/11/11 04:16:35;;;;;;;10.00;4.47;;;6.70;99.90;;;;;;4989644;28;20034;-52
2023/11/11 04:19:01;;;;;;;9.30;4.80;;;6.60;99.90;;;;;;4989638;28;20037;-52
2023/11/11 04:21:26;;;;;;;12.20;4.50;;;6.60;99.90;;;;;;4990227;28;20053;-53
2023/11/11 04:23:52;;;;;;;11.37;4.83;;;6.60;99.90;;;;;;4991464;28;20499;-53
2023/11/11 04:26:18;;;;;;;13.77;4.67;;;6.50;99.90;;;;;;4991430;28;20030;-51
2023/11/11 04:28:44;;;;;;;8.23;3.93;;;6.50;99.90;;;;;;4989692;28;20030;-51
2023/11/11 04:31:12;;;;;;;13.30;4.70;;;6.60;99.90;;;;;;4991307;28;20034;-52
2023/11/11 04:33:37;;;;;;;9.33;3.70;;;6.60;99.90;;;;;;4991250;28;20034;-52
2023/11/11 04:36:03;;;;;;;9.67;3.13;;;6.60;99.90;;;;;;5009435;28;20026;-54
2023/11/11 04:38:29;;;;;;;7.57;3.83;;;6.60;99.90;;;;;;5010605;28;20030;-53
2023/11/11 04:40:58;;;;;;;7.77;3.03;;;6.60;99.90;;;;;;5010900;28;20390;-55
2023/11/11 04:43:23;;;;;;;10.05;3.13;;;6.60;99.90;;;;;;5010957;28;20041;-51
2023/11/11 04:45:49;;;;;;;7.10;3.13;;;6.70;99.90;;;;;;5010819;28;20160;-54
2023/11/11 04:48:14;;;;;;;6.80;2.40;;;6.70;99.90;;;;;;5010455;28;20029;-52
2023/11/11 04:50:40;;;;;;;5.97;2.40;;;6.60;99.90;;;;;;4993258;28;20050;-50
2023/11/11 04:53:07;;;;;;;5.10;2.23;;;6.60;99.90;;;;;;5010962;28;20036;-52
2023/11/11 04:55:33;;;;;;;5.63;2.07;;;6.70;99.90;;;;;;5010801;28;20026;-52
2023/11/11 04:57:58;;;;;;;4.50;1.90;;;6.70;99.90;;;;;;5010549;28;20513;-49
2023/11/11 05:00:24;;;;;;;6.07;1.80;;;6.60;99.90;;;;;;5010629;28;20030;-52
2023/11/11 05:02:50;;;;;;;6.53;1.70;;;6.60;99.90;;;;;;5010702;28;20096;-49
2023/11/11 05:05:16;;;;;;;3.20;1.60;;;6.50;99.90;;;;;;5011125;28;20442;-50
2023/11/11 05:07:44;;;;;;;4.70;1.83;;;6.50;99.90;;;;;;5010691;28;20034;-54
2023/11/11 05:10:09;;;;;;;4.33;1.60;;;6.50;99.90;;;;;;5010673;28;20033;-53
2023/11/11 05:12:37;;;;;;;4.00;1.67;;;6.50;99.90;;;;;;5010766;28;20033;-54
2023/11/11 05:15:15;;;;;;;3.00;1.30;;;6.60;99.90;;;;;;5010544;28;20044;-51
2023/11/11 05:17:44;;;;;;;7.57;1.70;;;6.60;99.90;;;;;;5010359;28;20034;-51
2023/11/11 05:20:14;;;;;;;5.90;1.38;;;6.60;99.90;;;;;;5010334;28;20022;-54
2023/11/11 05:22:39;;;;;;;;;;;6.50;99.90;;;;;;4993566;28;20085;-52
2023/11/11 05:25:06;;;;;;;4.30;1.40;;;6.50;99.90;;;;;;5010625;28;19956;-53
2023/11/11 05:27:31;;;;;;;2.20;1.20;;;6.60;99.90;;;;;;4994668;28;20034;-50
2023/11/11 05:29:58;;;;;;;3.37;1.13;;;6.60;99.90;;;;;;5013878;28;20402;-51
2023/11/11 05:32:24;;;;;;;3.07;0.70;;;6.60;99.90;;;;;;5014207;28;20113;-50
2023/11/11 05:34:52;;;;;;;3.93;0.97;;;6.50;99.90;;;;;;5014203;28;20037;-50
2023/11/11 05:37:21;;;;;;;2.23;0.90;;;6.50;99.90;;;;;;5013922;28;20517;-50
2023/11/11 05:39:47;;;;;;;1.42;0.43;;;6.50;99.90;;;;;;5013702;28;20524;-55
2023/11/11 05:42:12;;;;;;;1.63;0.70;;;6.40;99.90;;;;;;5013989;28;20361;-51
2023/11/11 05:44:42;;;;;;;4.77;1.13;;;6.40;99.90;;;;;;5013868;28;20037;-54
2023/11/11 05:47:08;;;;;;;4.47;0.60;;;6.40;99.90;;;;;;5013696;28;20125;-53
2023/11/11 05:49:34;;;;;;;1.07;0.57;;;6.40;99.90;;;;;;5013804;28;20040;-51
2023/11/11 05:52:04;;;;;;;2.10;0.43;;;6.40;99.90;;;;;;5013783;28;20033;-51
2023/11/11 05:54:30;;;;;;;0.90;0.40;;;6.40;99.90;;;;;;5013745;28;20382;-53
2023/11/11 05:56:56;;;;;;;3.43;0.50;;;6.40;99.90;;;;;;5013337;28;20022;-51
2023/11/11 05:59:22;;;;;;;0.60;0.30;;;6.50;99.90;;;;;;5013358;28;20026;-53
2023/11/11 06:01:48;;;;;;;1.27;0.60;;;6.50;99.90;;;;;;5013558;28;20033;-50
2023/11/11 06:04:14;;;;;;;2.53;0.47;;;6.60;99.90;;;;;;5013637;28;20034;-51
2023/11/11 06:06:43;;;;;;;0.70;0.40;;;6.70;99.90;;;;;;5013399;28;20483;-52
2023/11/11 06:09:15;;;;;;;1.27;0.50;;;6.80;99.90;;;;;;5012963;28;20532;-50
2023/11/11 06:11:43;;;;;;;3.00;0.67;;;6.70;99.90;;;;;;5013294;28;20488;-51
2023/11/11 06:14:08;;;;;;;3.70;0.60;;;6.70;99.90;;;;;;5013270;28;20034;-50
2023/11/11 06:16:34;;;;;;;3.07;0.73;;;6.70;99.90;;;;;;5013338;28;20105;-53
2023/11/11 06:19:00;;;;;;;4.93;0.90;;;6.60;99.90;;;;;;5012753;28;20034;-50
2023/11/11 06:21:26;;;;;;;3.93;0.60;;;6.70;99.90;;;;;;5013329;28;20108;-53
2023/11/11 06:23:51;;;;;;;4.87;1.43;;;6.70;99.90;;;;;;5013128;28;20030;-52
2023/11/11 06:26:17;;;;;;;3.63;1.13;;;6.80;99.90;;;;;;5013126;28;20481;-51
2023/11/11 06:28:43;;;;;;;2.73;1.23;;;6.70;99.90;;;;;;5012563;28;20025;-54
2023/11/11 06:31:08;;;;;;;5.83;1.90;;;6.70;99.90;;;;;;5013004;28;20395;-50
2023/11/11 06:33:34;;;;;;;7.13;2.93;;;6.70;99.90;;;;;;4995365;28;20065;-52
2023/11/11 06:36:00;;;;;;;8.13;2.93;;;6.70;99.90;;;;;;5013068;28;20450;-51
2023/11/11 06:38:25;;;;;;;9.67;2.80;;;6.80;99.90;;;;;;5011543;28;20038;-51
2023/11/11 06:40:51;;;;;;;10.03;3.53;;;6.90;99.90;;;;;;5012870;28;20062;-54
2023/11/11 06:43:17;;;;;;;10.20;5.00;;;6.80;99.90;;;;;;5012806;28;20080;-54
2023/11/11 06:45:42;;;;;;;12.43;5.53;;;6.90;99.90;;;;;;5012728;28;20394;-55
2023/11/11 06:48:08;;;;;;;22.97;8.27;;;6.80;99.90;;;;;;5012430;28;20041;-53
2023/11/11 06:50:34;;;;;;;13.77;5.20;;;6.90;99.90;;;;;;5012582;28;20038;-54
2023/11/11 06:53:00;;;;;;;10.30;5.00;;;6.90;99.90;;;;;;5012417;28;20474;-52
2023/11/11 06:55:29;;;;;;;11.13;4.37;;;6.90;99.90;;;;;;5012649;28;20038;-53
2023/11/11 06:57:54;;;;;;;14.13;5.65;;;6.90;99.90;;;;;;5012369;28;20569;-51
2023/11/11 07:00:20;;;;;;;10.33;3.93;;;6.90;99.90;;;;;;5012176;28;20034;-54
2023/11/11 07:02:47;;;;;;;10.93;4.67;;;6.90;99.90;;;;;;5012477;28;20045;-53
2023/11/11 07:05:13;;;;;;;11.90;4.53;;;6.90;99.90;;;;;;5012792;28;20034;-55
2023/11/11 07:07:40;;;;;;;11.87;5.10;;;6.90;99.90;;;;;;5012095;28;20570;-53
2023/11/11 07:10:07;;;;;;;13.90;5.27;;;6.90;99.90;;;;;;5012375;28;20030;-54
2023/11/11 07:12:33;;;;;;;12.60;4.97;;;6.90;99.90;;;;;;5012245;28;20042;-54
2023/11/11 07:14:59;;;;;;;11.00;4.60;;;6.90;99.90;;;;;;5012236;28;20113;-53
2023/11/11 07:17:25;;;;;;;10.40;4.33;;;6.90;99.90;;;;;;5012118;28;20165;-55
2023/11/11 07:19:50;;;;;;;14.43;4.77;;;6.80;99.90;;;;;;5012121;28;20030;-52
2023/11/11 07:22:18;;;;;;;9.03;4.30;;;6.90;99.90;;;;;;5012316;28;20034;-51
2023/11/11 07:24:45;;;;;;;10.57;4.20;;;6.90;99.90;;;;;;5012448;28;20030;-54
2023/11/11 07:27:11;;;;;;;8.97;4.37;;;6.90;99.90;;;;;;5012112;28;20030;-52
2023/11/11 07:29:37;;;;;;;11.50;5.10;;;6.90;99.90;;;;;;5011781;28;20034;-52
2023/11/11 07:32:02;;;;;;;9.20;3.87;;;6.90;99.90;;;;;;5012053;28;20112;-53
2023/11/11 07:34:28;;;;;;;10.77;4.57;;;6.80;99.90;;;;;;5011830;28;20026;-51
2023/11/11 07:36:53;;;;;;;8.77;4.00;;;6.90;99.90;;;;;;5011701;28;20113;-52
2023/11/11 07:39:19;;;;;;;9.83;4.03;;;6.90;99.90;;;;;;5011663;28;20125;-50
2023/11/11 07:41:46;;;;;;;9.90;3.77;;;6.90;99.90;;;;;;5012024;28;20395;-54
2023/11/11 07:44:12;;;;;;;9.83;3.97;;;6.90;99.90;;;;;;5011675;28;20064;-52
2023/11/11 07:46:38;;;;;;;10.93;3.90;;;6.90;99.90;;;;;;4994182;28;20038;-51
2023/11/11 07:49:05;;;;;;;7.80;3.53;;;6.90;99.90;;;;;;5011207;28;20043;-50
2023/11/11 07:51:32;;;;;;;13.60;4.77;;;6.90;99.90;;;;;;5011288;28;20398;-52
2023/11/11 07:53:58;;;;;;;11.20;4.60;;;6.90;99.90;;;;;;5010699;28;20433;-51
2023/11/11 07:56:24;;;;;;;9.97;4.03;;;6.90;99.90;;;;;;5011687;28;20029;-54
2023/11/11 07:58:53;;;;;;;12.00;5.03;;;7.00;99.90;;;;;;5010982;28;20034;-54
2023/11/11 08:01:22;;;;;;;9.43;3.73;;;6.90;99.90;;;;;;5011470;28;20482;-50
2023/11/11 08:03:48;;;;;;;10.05;4.05;;;7.00;99.90;;;;;;4993625;28;20445;-54
2023/11/11 08:06:14;;;;;;;11.03;4.47;;;7.00;99.90;;;;;;5011256;28;20091;-52
2023/11/11 08:08:40;;;;;;;10.17;3.93;;;7.00;99.90;;;;;;5010825;28;20084;-50
2023/11/11 08:11:08;;;;;;;8.53;4.50;;;7.00;99.90;;;;;;5011271;28;20029;-51
2023/11/11 08:13:35;;;;;;;8.80;4.00;;;7.10;99.90;;;;;;5011119;28;20029;-50
2023/11/11 08:16:00;;;;;;;10.97;4.53;;;7.00;99.90;;;;;;5011338;28;20034;-50
2023/11/11 08:18:27;;;;;;;10.23;4.13;;;7.10;99.90;;;;;;5010553;28;20113;-55
2023/11/11 08:20:52;;;;;;;10.33;4.43;;;7.20;99.90;;;;;;5011379;28;20399;-53
2023/11/11 08:23:19;;;;;;;10.33;4.00;;;7.20;99.90;;;;;;5011031;28;20037;-52
2023/11/11 08:25:44;;;;;;;11.43;3.70;;;7.20;99.90;;;;;;5011008;28;20479;-53
2023/11/11 08:28:10;;;;;;;11.03;3.70;;;7.20;99.90;;;;;;5010640;28;20041;-52
2023/11/11 08:30:36;;;;;;;10.40;3.80;;;7.10;99.90;;;;;;5010969;28;20084;-51
2023/11/11 08:33:03;;;;;;;7.33;3.60;;;7.20;99.90;;;;;;5010857;28;20041;-53
2023/11/11 08:35:28;;;;;;;8.40;3.27;;;7.30;99.90;;;;;;5010918;28;20514;-51
2023/11/11 08:37:54;;;;;;;9.83;4.37;;;7.30;99.90;;;;;;5010655;28;20022;-52
2023/11/11 08:40:20;;;;;;;9.70;3.63;;;7.30;99.90;;;;;;5010618;28;20391;-54
2023/11/11 08:42:46;;;;;;;13.40;3.83;;;7.30;99.90;;;;;;5010966;28;20220;-50
2023/11/11 08:45:13;;;;;;;14.57;4.43;;;7.30;99.90;;;;;;5011246;28;20442;-52
2023/11/11 08:47:39;;;;;;;9.50;4.13;;;7.30;99.90;;;;;;5010511;28;20060;-52
2023/11/11 08:50:06;;;;;;;8.87;3.33;;;7.30;99.90;;;;;;5010514;28;20471;-51
2023/11/11 08:52:41;;;;;;;11.53;4.00;;;7.30;99.90;;;;;;5010768;28;20041;-50
2023/11/11 08:55:08;;;;;;;11.10;5.17;;;7.30;99.90;;;;;;5010701;28;20065;-50
2023/11/11 08:57:33;;;;;;;10.30;4.10;;;7.30;99.90;;;;;;5010482;28;20033;-54
2023/11/11 08:59:59;;;;;;;8.47;3.57;;;7.30;99.90;;;;;;5010528;28;20026;-55
2023/11/11 09:02:25;;;;;;;11.00;4.63;;;7.30;99.90;;;;;;5012492;28;20034;-55
2023/11/11 09:04:52;;;;;;;13.10;4.90;;;7.30;99.90;;;;;;5014689;28;20475;-52
2023/11/11 09:07:20;;;;;;;9.87;3.40;;;7.30;99.90;;;;;;5014377;28;20041;-54
2023/11/11 09:09:45;;;;;;;12.43;4.33;;;7.30;99.90;;;;;;5014301;28;20038;-53
2023/11/11 09:12:11;;;;;;;9.43;4.10;;;7.40;99.90;;;;;;5014428;28;20069;-54
2023/11/11 09:14:37;;;;;;;11.60;4.07;;;7.40;99.90;;;;;;5014467;28;20502;-54
2023/11/11 09:17:05;;;;;;;9.23;4.17;;;7.40;99.90;;;;;;5014136;28;20085;-55
2023/11/11 09:19:31;;;;;;;10.80;5.05;;;7.40;99.90;;;;;;4996417;28;20029;-56
2023/11/11 09:21:57;;;;;;;9.13;4.40;;;7.40;99.90;;;;;;5014645;28;20587;-54
2023/11/11 09:24:23;;;;;;;12.50;4.50;;;7.50;99.90;;;;;;5014284;28;20038;-53
2023/11/11 09:26:50;;;;;;;9.37;4.17;;;7.50;99.90;;;;;;5014304;28;20117;-53
2023/11/11 09:29:16;;;;;;;13.23;4.63;;;7.70;99.90;;;;;;5013772;28;20084;-54
2023/11/11 09:31:45;;;;;;;9.00;4.17;;;7.70;99.90;;;;;;5014256;28;20026;-55
2023/11/11 09:34:12;;;;;;;9.47;4.60;;;7.70;99.90;;;;;;5014129;28;20530;-53
2023/11/11 09:36:39;;;;;;;10.17;4.87;;;7.70;99.90;;;;;;5014374;28;20037;-53
2023/11/11 09:39:08;;;;;;;12.47;4.73;;;7.70;99.90;;;;;;5013824;28;20038;-53
2023/11/11 09:41:34;;;;;;;10.07;4.47;;;7.80;99.90;;;;;;5014311;28;20080;-54
2023/11/11 09:44:00;;;;;;;12.17;4.00;;;7.80;99.90;;;;;;5014119;28;20382;-55
2023/11/11 09:46:33;;;;;;;9.27;4.90;;;7.80;99.90;;;;;;5014073;28;20022;-55
2023/11/11 09:48:59;;;;;;;9.27;3.70;;;7.80;99.90;;;;;;5013424;28;20498;-54
2023/11/11 09:51:26;;;;;;;12.67;4.43;;;7.70;99.90;;;;;;5013886;28;20029;-54
2023/11/11 09:53:53;;;;;;;9.30;4.10;;;7.70;99.90;;;;;;4996457;28;20030;-55
2023/11/11 09:56:21;;;;;;;10.80;4.57;;;7.60;99.90;;;;;;5013646;28;20125;-52
2023/11/11 09:58:49;;;;;;;12.80;5.20;;;7.70;99.90;;;;;;5013146;28;20049;-54
2023/11/11 10:01:15;;;;;;;9.43;4.60;;;7.80;99.90;;;;;;5013615;28;20038;-52
2023/11/11 10:03:40;;;;;;;11.60;4.73;;;7.80;99.90;;;;;;5013527;28;20033;-52
2023/11/11 10:06:07;;;;;;;16.20;5.03;;;7.80;99.90;;;;;;5013521;28;20030;-50
2023/11/11 10:08:33;;;;;;;14.13;4.57;;;7.70;99.90;;;;;;5012964;28;20476;-54
2023/11/11 10:10:59;;;;;;;14.93;4.53;;;7.80;99.90;;;;;;5013341;28;20029;-56
2023/11/11 10:13:26;;;;;;;9.03;4.43;;;7.80;99.90;;;;;;5012078;28;20038;-53
2023/11/11 10:16:21;;;;;;;10.30;4.10;;;7.80;99.90;;;;;;5013582;28;20041;-54
2023/11/11 10:18:49;;;;;;;11.23;4.23;;;7.80;99.90;;;;;;5012868;28;20042;-55
2023/11/11 10:21:16;;;;;;;9.30;4.03;;;7.70;99.90;;;;;;5012106;28;20026;-54
2023/11/11 10:23:44;;;;;;;10.97;5.13;;;7.60;99.90;;;;;;5013066;28;20109;-54
2023/11/11 10:26:11;;;;;;;9.20;4.20;;;7.60;99.90;;;;;;5013124;28;20034;-55
2023/11/11 10:28:36;;;;;;;10.43;4.80;;;7.60;99.90;;;;;;5012623;28;20030;-51
2023/11/11 10:31:09;;;;;;;13.07;5.13;;;7.80;99.90;;;;;;5013432;28;20076;-56
2023/11/11 10:33:36;;;;;;;10.17;4.53;;;7.90;99.90;;;;;;5012923;28;20096;-53
2023/11/11 10:36:02;;;;;;;14.33;4.67;;;7.80;99.90;;;;;;5012773;28;20096;-51
2023/11/11 10:38:28;;;;;;;10.83;4.33;;;7.80;99.90;;;;;;5012378;28;20499;-50
2023/11/11 10:40:54;;;;;;;11.50;4.10;;;7.80;99.90;;;;;;5011655;28;20496;-55
2023/11/11 10:43:20;;;;;;;13.07;4.67;;;7.80;99.90;;;;;;5012828;28;20034;-51
2023/11/11 10:45:47;;;;;;;8.43;3.80;;;7.70;99.90;;;;;;5012815;28;20057;-51
2023/11/11 10:48:14;;;;;;;13.23;3.97;;;7.80;99.90;;;;;;5012442;28;20065;-54
2023/11/11 10:50:41;;;;;;;9.03;3.73;;;7.80;99.90;;;;;;5012339;28;20120;-54
2023/11/11 10:53:07;;;;;;;10.43;4.10;;;8.00;99.90;;;;;;5012818;28;20316;-55
2023/11/11 10:55:33;;;;;;;10.87;3.97;;;8.10;99.90;;;;;;5012453;28;20030;-53
2023/11/11 10:58:00;;;;;;;11.00;3.40;;;8.30;99.90;;;;;;5012244;28;20125;-53
2023/11/11 11:00:26;;;;;;;8.00;4.20;;;8.40;99.90;;;;;;5012258;28;20022;-53
2023/11/11 11:02:55;;;;;;;10.07;3.83;;;8.70;99.90;;;;;;5012511;28;20049;-55
2023/11/11 11:05:43;;;;;;;6.97;3.30;;;9.40;99.90;;;;;;5012846;28;20033;-56
2023/11/11 11:08:26;;;;;;;9.65;3.92;;;11.10;99.90;;;;;;5012065;28;20029;-56
2023/11/11 11:11:11;;;;;;;8.82;3.17;;;13.60;99.90;;;;;;5012318;28;20065;-56
2023/11/11 11:13:39;;;;;;;7.00;2.30;;;15.10;99.90;;;;;;5012035;28;20048;-55
2023/11/11 11:16:08;;;;;;;6.50;2.40;;;16.50;99.90;;;;;;5012156;28;20045;-52
2023/11/11 11:18:33;;;;;;;4.35;2.20;;;17.30;99.90;;;;;;5011663;28;20041;-51
2023/11/11 11:21:03;;;;;;;5.50;2.47;;;18.60;99.90;;;;;;4994465;28;20044;-54
2023/11/11 11:23:36;;;;;;;4.80;2.00;;;18.80;97.90;;;;;;5012100;28;20395;-52
2023/11/11 11:26:02;;;;;;;33.17;15.27;;;18.10;98.80;;;;;;5011536;28;20021;-53
2023/11/11 11:28:29;;;;;;;7.25;2.53;;;17.30;99.90;;;;;;5011462;28;20026;-51
2023/11/11 11:31:03;;;;;;;8.05;2.25;;;16.00;99.90;;;;;;5011943;28;20034;-54
2023/11/11 11:33:33;;;;;;;6.68;2.15;;;15.20;99.90;;;;;;5011720;28;20570;-55
2023/11/11 11:36:06;;;;;;;7.78;2.53;;;14.80;99.90;;;;;;5011754;28;20065;-51
2023/11/11 11:38:39;;;;;;;4.63;2.10;;;14.10;99.90;;;;;;5011128;28;20026;-55
2023/11/11 11:41:09;;;;;;;6.63;2.10;;;13.20;99.90;;;;;;5011758;28;20029;-53
2023/11/11 11:43:36;;;;;;;12.95;2.50;;;12.80;99.90;;;;;;5011809;28;20026;-55
2023/11/11 11:46:03;;;;;;;6.00;2.10;;;12.60;99.90;;;;;;5011908;28;20403;-54
2023/11/11 11:48:39;;;;;;;6.78;2.03;;;13.10;99.90;;;;;;5011174;28;20505;-53
2023/11/11 11:51:08;;;;;;;6.95;2.35;;;13.60;99.90;;;;;;5011657;28;20471;-55
2023/11/11 11:53:41;;;;;;;6.50;2.40;;;12.80;99.90;;;;;;5011588;28;20088;-51
2023/11/11 11:56:08;;;;;;;6.40;2.38;;;12.40;99.90;;;;;;5011741;28;20045;-51
2023/11/11 11:59:03;;;;;;;6.63;2.60;;;12.00;99.90;;;;;;5011336;28;20037;-54
2023/11/11 12:01:36;;;;;;;8.73;2.45;;;11.70;99.90;;;;;;5007289;28;20038;-52
2023/11/11 12:04:06;;;;;;;4.85;2.13;;;11.60;99.90;;;;;;5011709;28;20116;-52
2023/11/11 12:06:40;;;;;;;;;;;11.90;99.90;;;;;;5012028;28;20121;-53
2023/11/11 12:09:09;;;;;;;5.13;2.20;;;12.00;99.90;;;;;;5010962;28;19913;-55
2023/11/11 12:11:35;;;;;;;5.07;2.35;;;11.80;99.90;;;;;;5011805;28;20018;-54
2023/11/11 12:14:13;;;;;;;4.67;2.43;;;11.40;99.90;;;;;;5011199;28;20079;-55
2023/11/11 12:16:47;;;;;;;6.97;2.47;;;11.20;99.90;;;;;;5011405;28;20389;-53
2023/11/11 12:19:14;;;;;;;5.20;2.13;;;10.70;99.90;;;;;;5010606;28;20102;-49
2023/11/11 12:21:42;;;;;;;5.40;2.23;;;10.40;99.90;;;;;;5011189;28;20033;-51
2023/11/11 12:24:13;;;;;;;6.13;2.20;;;10.20;99.90;;;;;;5011031;28;20491;-51
2023/11/11 12:26:39;;;;;;;11.03;2.70;;;10.00;99.90;;;;;;5011054;28;20449;-50
2023/11/11 12:29:05;;;;;;;7.57;2.27;;;9.90;99.90;;;;;;5010738;28;20022;-53
2023/11/11 12:31:31;;;;;;;6.63;2.00;;;9.90;99.90;;;;;;5010902;28;20077;-52
2023/11/11 12:33:57;;;;;;;6.47;2.00;;;10.40;99.90;;;;;;5009428;28;20026;-53
2023/11/11 12:36:24;;;;;;;4.93;2.00;;;10.60;99.90;;;;;;5010201;28;20026;-51
2023/11/11 12:39:05;;;;;;;5.00;2.00;;;10.80;99.90;;;;;;5010279;28;20026;-50
2023/11/11 12:41:30;;;;;;;5.07;2.00;;;10.70;99.90;;;;;;5010991;28;20026;-51
2023/11/11 12:43:57;;;;;;;10.00;3.63;;;10.60;99.90;;;;;;5010942;28;20036;-54
2023/11/11 12:46:23;;;;;;;7.23;2.97;;;10.60;99.90;;;;;;5010835;28;20045;-49
2023/11/11 12:48:49;;;;;;;7.17;2.00;;;10.60;99.90;;;;;;5010317;28;20030;-52